Time;durP1;ratioP1;P1;durP2;ratioP2;P2;SDS_P1;SDS_P2;PMS_P1;PMS_P2;Temp;Humidity;BMP_temperature;BMP_pressure;BME280_temperature;BME280_humidity;BME280_pressure;Samples;Min_cycle;Max_cycle;Signal;HPM_P1;HPM_P2
2022/04/06 00:00:13;;;;;;;6.93;5.28;;;10.10;80.30;;;;;;5050664;28;20035;-67
2022/04/06 00:02:39;;;;;;;7.80;5.85;;;10.00;80.30;;;;;;5050234;28;20032;-68
2022/04/06 00:05:08;;;;;;;6.00;5.35;;;10.10;80.40;;;;;;5050313;28;20039;-68
2022/04/06 00:07:33;;;;;;;6.40;5.10;;;10.10;80.40;;;;;;5049872;28;20155;-67
2022/04/06 00:09:59;;;;;;;6.28;5.03;;;10.10;80.50;;;;;;5050204;28;20461;-68
2022/04/06 00:12:25;;;;;;;7.80;5.30;;;10.20;80.40;;;;;;5050157;28;20025;-67
2022/04/06 00:14:50;;;;;;;10.52;5.57;;;10.20;80.20;;;;;;5050186;28;20044;-69
2022/04/06 00:17:16;;;;;;;7.25;5.22;;;10.20;80.20;;;;;;5049688;28;20036;-68
2022/04/06 00:19:42;;;;;;;6.25;5.03;;;10.30;80.30;;;;;;5050030;28;20029;-67
2022/04/06 00:22:08;;;;;;;6.75;5.20;;;10.30;79.70;;;;;;5049994;28;20691;-68
2022/04/06 00:24:33;;;;;;;7.45;5.68;;;10.30;79.60;;;;;;5050256;28;20064;-68
2022/04/06 00:26:59;;;;;;;6.13;5.38;;;10.30;79.80;;;;;;5049769;28;20033;-68
2022/04/06 00:29:25;;;;;;;7.38;5.47;;;10.30;79.40;;;;;;5049805;28;20414;-68
2022/04/06 00:31:50;;;;;;;6.53;5.53;;;10.30;79.40;;;;;;5050129;28;20153;-67
2022/04/06 00:34:16;;;;;;;6.90;5.85;;;10.30;79.60;;;;;;5026142;28;20021;-66
2022/04/06 00:36:41;;;;;;;7.53;6.18;;;10.30;79.90;;;;;;5049981;28;20035;-67
2022/04/06 00:39:07;;;;;;;6.57;5.85;;;10.30;79.30;;;;;;5049910;28;20075;-67
2022/04/06 00:41:33;;;;;;;6.97;6.00;;;10.30;79.30;;;;;;5050321;28;20025;-68
2022/04/06 00:44:09;;;;;;;7.55;6.07;;;10.40;79.70;;;;;;5031747;28;20032;-68
2022/04/06 00:46:35;;;;;;;7.20;5.47;;;10.30;80.10;;;;;;5049485;28;20518;-68
2022/04/06 00:49:00;;;;;;;7.82;6.13;;;10.30;80.50;;;;;;5049244;28;20036;-68
2022/04/06 00:51:26;;;;;;;7.20;6.00;;;10.30;80.90;;;;;;5049434;28;20044;-68
2022/04/06 00:53:51;;;;;;;8.63;6.50;;;10.20;81.70;;;;;;5049685;28;20024;-68
2022/04/06 00:56:17;;;;;;;8.02;6.75;;;10.10;82.10;;;;;;5049534;28;20021;-68
2022/04/06 00:58:43;;;;;;;8.23;6.80;;;10.10;82.10;;;;;;5048498;28;20310;-68
2022/04/06 01:01:09;;;;;;;8.70;7.30;;;10.00;83.10;;;;;;5049508;28;20033;-67
2022/04/06 01:03:34;;;;;;;8.32;7.10;;;10.00;83.80;;;;;;5049337;28;20029;-68
2022/04/06 01:06:00;;;;;;;10.30;7.82;;;10.00;84.70;;;;;;5031623;28;20033;-68
2022/04/06 01:08:26;;;;;;;9.18;7.68;;;9.90;84.80;;;;;;5049009;28;20021;-68
2022/04/06 01:10:51;;;;;;;9.70;8.30;;;9.80;85.00;;;;;;5049502;28;20204;-67
2022/04/06 01:13:18;;;;;;;9.85;8.05;;;9.80;85.70;;;;;;5031652;28;20064;-67
2022/04/06 01:15:43;;;;;;;9.15;8.00;;;9.70;86.50;;;;;;5049649;28;20025;-67
2022/04/06 01:18:11;;;;;;;11.60;8.85;;;9.60;87.60;;;;;;5048742;28;20025;-68
2022/04/06 01:20:37;;;;;;;10.50;8.35;;;9.50;88.10;;;;;;5049296;28;20086;-67
2022/04/06 01:23:04;;;;;;;15.27;10.05;;;9.50;88.80;;;;;;5049368;28;20032;-67
2022/04/06 01:25:30;;;;;;;13.82;10.07;;;9.40;89.40;;;;;;5042355;28;20098;-68
2022/04/06 01:27:56;;;;;;;15.57;10.88;;;9.30;89.60;;;;;;5026618;28;20494;-69
2022/04/06 01:30:21;;;;;;;14.18;10.75;;;9.20;89.90;;;;;;5046690;28;20394;-67
2022/04/06 01:32:47;;;;;;;13.27;10.27;;;9.20;90.40;;;;;;5047132;28;20092;-67
2022/04/06 01:35:12;;;;;;;14.82;10.63;;;9.20;90.70;;;;;;5048253;28;20029;-68
2022/04/06 01:37:38;;;;;;;18.05;11.88;;;9.10;90.50;;;;;;5045747;28;20028;-68
2022/04/06 01:40:05;;;;;;;15.25;11.40;;;9.20;90.80;;;;;;5048846;28;20064;-68
2022/04/06 01:42:31;;;;;;;15.32;12.15;;;9.10;90.90;;;;;;5048493;28;20079;-68
2022/04/06 01:44:58;;;;;;;15.63;11.60;;;9.10;91.20;;;;;;5048638;28;20025;-68
2022/04/06 01:47:23;;;;;;;14.52;10.95;;;9.10;91.20;;;;;;5047735;28;20028;-67
2022/04/06 01:52:35;;;;;;;17.35;11.65;;;9.10;91.50;;;;;;5048906;28;20055;-67
2022/04/06 01:55:12;;;;;;;19.63;12.88;;;9.10;91.50;;;;;;5048491;28;20021;-68
2022/04/06 01:57:39;;;;;;;17.70;12.00;;;9.10;91.40;;;;;;5047719;28;20490;-68
2022/04/06 02:00:13;;;;;;;18.80;13.50;;;9.00;91.20;;;;;;5048194;28;20483;-69
2022/04/06 02:02:40;;;;;;;18.88;11.93;;;9.10;91.30;;;;;;5048397;28;20036;-68
2022/04/06 02:05:11;;;;;;;16.95;13.18;;;9.10;91.30;;;;;;5048558;28;20560;-69
2022/04/06 02:07:37;;;;;;;16.45;12.02;;;9.10;91.20;;;;;;5047662;28;20043;-68
2022/04/06 02:10:04;;;;;;;20.67;13.48;;;9.10;91.20;;;;;;5051328;28;20029;-68
2022/04/06 02:12:30;;;;;;;19.63;13.63;;;9.10;91.20;;;;;;5052210;28;20049;-68
2022/04/06 02:14:56;;;;;;;18.73;14.05;;;9.00;91.10;;;;;;5052195;28;20059;-68
2022/04/06 02:17:22;;;;;;;17.63;13.32;;;9.00;91.50;;;;;;5051445;28;20502;-68
2022/04/06 02:19:48;;;;;;;18.85;14.13;;;9.10;91.40;;;;;;5051155;28;20098;-68
2022/04/06 02:22:14;;;;;;;17.25;13.70;;;9.10;91.20;;;;;;5047648;28;20483;-69
2022/04/06 02:24:40;;;;;;;18.55;13.82;;;9.10;91.10;;;;;;5051680;28;20040;-68
2022/04/06 02:27:08;;;;;;;18.70;14.27;;;9.20;90.90;;;;;;5050946;28;20071;-68
2022/04/06 02:29:35;;;;;;;18.65;13.65;;;9.20;91.00;;;;;;5051908;28;20035;-68
2022/04/06 02:32:00;;;;;;;17.90;13.55;;;9.20;90.90;;;;;;5051781;28;20074;-67
2022/04/06 02:34:26;;;;;;;18.55;13.27;;;9.20;90.70;;;;;;5051207;28;20104;-67
2022/04/06 02:36:52;;;;;;;16.38;12.43;;;9.20;90.60;;;;;;5051464;28;20072;-67
2022/04/06 02:39:17;;;;;;;19.08;13.48;;;9.20;90.50;;;;;;5050500;28;20052;-68
2022/04/06 02:41:43;;;;;;;20.08;13.55;;;9.30;90.40;;;;;;5051612;28;20058;-67
2022/04/06 02:44:08;;;;;;;17.17;13.15;;;9.30;90.30;;;;;;5051452;28;20021;-67
2022/04/06 02:46:34;;;;;;;17.63;13.20;;;9.20;90.10;;;;;;5051485;28;20103;-67
2022/04/06 02:48:59;;;;;;;19.60;14.50;;;9.20;90.40;;;;;;5049555;28;20036;-67
2022/04/06 02:51:25;;;;;;;20.55;14.38;;;9.20;90.60;;;;;;5051369;28;20025;-67
2022/04/06 02:53:51;;;;;;;18.20;12.60;;;9.10;90.60;;;;;;5051431;28;20047;-67
2022/04/06 02:56:16;;;;;;;18.33;13.45;;;9.10;90.40;;;;;;5033464;28;20112;-68
2022/04/06 02:58:42;;;;;;;17.75;13.07;;;9.10;90.40;;;;;;5050357;28;20479;-69
2022/04/06 03:01:07;;;;;;;18.45;13.48;;;9.10;90.40;;;;;;5051476;28;20391;-69
2022/04/06 03:03:33;;;;;;;19.58;14.40;;;9.10;90.40;;;;;;5051360;28;20391;-69
2022/04/06 03:05:58;;;;;;;18.88;13.93;;;9.10;90.40;;;;;;5051193;28;20056;-68
2022/04/06 03:08:24;;;;;;;18.50;14.38;;;9.10;90.20;;;;;;5049958;28;20029;-68
2022/04/06 03:10:50;;;;;;;18.75;13.48;;;9.20;90.30;;;;;;5051304;28;20112;-68
2022/04/06 03:13:15;;;;;;;19.15;12.90;;;9.20;90.20;;;;;;5033500;28;20029;-68
2022/04/06 03:15:42;;;;;;;18.80;14.00;;;9.20;90.60;;;;;;5051559;28;20024;-69
2022/04/06 03:18:07;;;;;;;16.95;12.35;;;9.20;90.30;;;;;;5050253;28;20025;-68
2022/04/06 03:20:33;;;;;;;18.75;13.07;;;9.20;90.10;;;;;;5049879;28;20029;-68
2022/04/06 03:22:59;;;;;;;19.65;14.52;;;9.10;90.20;;;;;;5051305;28;20021;-68
2022/04/06 03:25:24;;;;;;;17.42;14.20;;;9.10;90.50;;;;;;5051270;28;20083;-67
2022/04/06 03:27:50;;;;;;;18.27;13.18;;;9.10;90.60;;;;;;5050666;28;20448;-67
2022/04/06 03:30:16;;;;;;;16.80;12.23;;;9.20;90.60;;;;;;5052097;28;20701;-68
2022/04/06 03:32:42;;;;;;;19.70;13.07;;;9.20;90.40;;;;;;5052266;28;20450;-67
2022/04/06 03:35:08;;;;;;;18.13;12.88;;;9.10;90.20;;;;;;5052662;28;20386;-68
2022/04/06 03:37:34;;;;;;;15.63;12.30;;;9.10;90.20;;;;;;5056845;22;20245;31
2022/04/06 03:39:59;;;;;;;15.52;10.77;;;9.20;89.80;;;;;;5010136;28;20057;-70
2022/04/06 03:42:25;;;;;;;14.77;11.50;;;9.20;89.60;;;;;;5010580;28;20026;-71
2022/04/06 03:44:51;;;;;;;15.57;10.27;;;9.10;89.50;;;;;;5017397;28;20029;-70
2022/04/06 03:47:16;;;;;;;15.25;12.73;;;9.20;89.30;;;;;;5029688;28;20029;-72
2022/04/06 03:49:42;;;;;;;17.17;13.10;;;9.20;89.40;;;;;;5030567;28;20398;-71
2022/04/06 03:52:08;;;;;;;16.23;11.38;;;9.20;89.30;;;;;;5030265;28;20587;-72
2022/04/06 03:54:34;;;;;;;14.88;10.40;;;9.10;89.30;;;;;;5030046;28;20029;-71
2022/04/06 03:57:00;;;;;;;14.68;10.38;;;9.20;89.30;;;;;;5025398;28;20116;-70
2022/04/06 03:59:26;;;;;;;14.45;11.10;;;9.10;89.40;;;;;;5021667;28;20060;-73
2022/04/06 04:01:51;;;;;;;13.60;10.32;;;9.10;89.30;;;;;;5030175;28;20060;-72
2022/04/06 04:04:17;;;;;;;13.95;10.60;;;9.10;89.30;;;;;;5030111;28;20039;-72
2022/04/06 04:06:43;;;;;;;16.38;10.80;;;9.20;89.20;;;;;;5029677;28;20028;-72
2022/04/06 04:09:08;;;;;;;15.45;11.40;;;9.20;89.40;;;;;;5029472;28;20384;-73
2022/04/06 04:11:34;;;;;;;14.25;10.50;;;9.20;89.00;;;;;;5030395;28;20490;-73
2022/04/06 04:14:00;;;;;;;14.73;11.23;;;9.10;89.20;;;;;;5030049;28;20017;-72
2022/04/06 04:16:25;;;;;;;14.88;11.25;;;9.10;89.40;;;;;;5029685;28;20020;-72
2022/04/06 04:18:51;;;;;;;12.85;10.50;;;9.20;89.40;;;;;;5029176;28;20053;-71
2022/04/06 04:21:32;;;;;;;14.40;10.23;;;9.30;88.90;;;;;;5029918;28;20030;-71
2022/04/06 04:23:58;;;;;;;14.10;10.38;;;9.30;88.40;;;;;;5030374;28;20442;-71
2022/04/06 04:26:24;;;;;;;13.13;9.80;;;9.30;88.30;;;;;;5027758;28;20052;-70
2022/04/06 04:28:49;;;;;;;15.93;11.45;;;9.40;88.20;;;;;;5029310;28;20029;-70
2022/04/06 04:31:15;;;;;;;13.95;10.50;;;9.40;88.20;;;;;;5030250;28;20019;-70
2022/04/06 04:33:41;;;;;;;14.65;10.73;;;9.40;88.00;;;;;;5030980;28;20026;-70
2022/04/06 04:36:07;;;;;;;17.42;12.15;;;9.40;87.70;;;;;;5026054;28;20076;-70
2022/04/06 04:38:32;;;;;;;18.00;12.05;;;9.40;87.80;;;;;;5029026;28;20068;-71
2022/04/06 04:40:58;;;;;;;16.92;11.93;;;9.40;87.90;;;;;;5029938;28;20057;-71
2022/04/06 04:43:23;;;;;;;17.35;12.75;;;9.40;88.00;;;;;;5028658;28;20033;-72
2022/04/06 04:45:49;;;;;;;14.90;11.15;;;9.40;87.70;;;;;;5011528;28;20246;-71
2022/04/06 04:48:14;;;;;;;16.02;10.50;;;9.50;87.90;;;;;;5028194;28;20036;-72
2022/04/06 04:50:40;;;;;;;19.35;11.00;;;9.50;87.50;;;;;;5028839;28;20083;-73
2022/04/06 04:53:06;;;;;;;12.60;9.63;;;9.50;87.10;;;;;;5029597;28;20127;-72
2022/04/06 04:55:33;;;;;;;14.27;10.15;;;9.50;87.30;;;;;;5029121;28;20061;-72
2022/04/06 04:57:58;;;;;;;13.80;8.95;;;9.50;86.90;;;;;;5027159;28;20025;-72
2022/04/06 05:00:24;;;;;;;13.57;9.85;;;9.50;86.50;;;;;;5029191;28;20032;-73
2022/04/06 05:02:49;;;;;;;11.73;8.77;;;9.50;86.10;;;;;;5011406;28;20030;-71
2022/04/06 05:05:15;;;;;;;12.45;8.45;;;9.50;86.00;;;;;;5029055;28;20025;-73
2022/04/06 05:07:41;;;;;;;10.90;8.35;;;9.50;85.80;;;;;;5028638;28;20060;-73
2022/04/06 05:10:07;;;;;;;10.38;8.55;;;9.60;85.70;;;;;;5029613;28;20053;-72
2022/04/06 05:12:34;;;;;;;11.02;8.43;;;9.60;85.30;;;;;;5023760;28;20034;-72
2022/04/06 05:14:59;;;;;;;11.48;8.63;;;9.70;85.30;;;;;;5016905;28;20045;-73
2022/04/06 05:17:26;;;;;;;11.45;8.18;;;9.70;84.60;;;;;;5028025;28;20768;-71
2022/04/06 05:19:52;;;;;;;9.98;8.20;;;9.80;84.50;;;;;;5023760;28;20029;-70
2022/04/06 05:22:17;;;;;;;11.68;7.63;;;9.80;84.20;;;;;;5027277;28;20109;-70
2022/04/06 05:24:43;;;;;;;10.60;8.05;;;9.90;84.10;;;;;;5028686;28;20117;-72
2022/04/06 05:27:09;;;;;;;10.93;7.53;;;9.90;83.80;;;;;;5027676;28;20029;-68
2022/04/06 05:29:34;;;;;;;9.52;7.78;;;9.90;83.00;;;;;;5028978;28;20040;-71
2022/04/06 05:32:00;;;;;;;9.77;7.57;;;9.90;83.80;;;;;;5028509;28;20487;-71
2022/04/06 05:34:26;;;;;;;12.35;7.53;;;9.90;83.00;;;;;;5028171;28;20104;-71
2022/04/06 05:36:51;;;;;;;11.77;7.32;;;10.00;83.10;;;;;;5025859;28;20053;-71
2022/04/06 05:39:17;;;;;;;8.77;7.38;;;10.00;82.80;;;;;;5018292;28;20030;-71
2022/04/06 05:41:42;;;;;;;10.50;6.80;;;10.20;82.20;;;;;;5028920;28;20022;-73
2022/04/06 05:44:08;;;;;;;9.57;6.75;;;10.20;81.50;;;;;;5032119;28;20373;-72
2022/04/06 05:46:33;;;;;;;9.35;7.43;;;10.20;81.40;;;;;;5034566;28;20124;-73
2022/04/06 05:48:59;;;;;;;10.55;7.75;;;10.30;81.40;;;;;;5014150;28;20021;-72
2022/04/06 05:51:25;;;;;;;10.25;7.75;;;10.30;81.80;;;;;;5032926;28;20025;-72
2022/04/06 05:53:50;;;;;;;11.90;7.53;;;10.40;81.60;;;;;;5032536;28;20021;-72
2022/04/06 05:56:16;;;;;;;8.95;6.32;;;10.30;81.40;;;;;;5032689;28;20026;-73
2022/04/06 05:58:43;;;;;;;9.38;6.25;;;10.40;81.20;;;;;;5030972;28;20029;-70
2022/04/06 06:01:08;;;;;;;10.65;7.45;;;10.40;81.10;;;;;;5032618;28;20029;-72
2022/04/06 06:03:34;;;;;;;10.07;7.65;;;10.40;81.10;;;;;;5014515;28;20044;-72
2022/04/06 06:06:00;;;;;;;13.05;7.43;;;10.40;81.40;;;;;;5032560;28;20479;-72
2022/04/06 06:08:26;;;;;;;11.43;8.55;;;10.40;81.80;;;;;;5031123;28;20031;-72
2022/04/06 06:10:52;;;;;;;10.43;8.25;;;10.30;83.10;;;;;;5032687;28;20030;-72
2022/04/06 06:13:17;;;;;;;15.38;9.85;;;10.20;84.30;;;;;;5032460;28;20021;-73
2022/04/06 06:15:43;;;;;;;12.80;8.88;;;10.10;86.00;;;;;;5031826;28;20338;-72
2022/04/06 06:18:08;;;;;;;12.75;9.77;;;10.00;86.90;;;;;;5031171;28;20029;-72
2022/04/06 06:20:35;;;;;;;14.55;11.50;;;9.90;87.60;;;;;;5032065;28;20506;-72
2022/04/06 06:23:01;;;;;;;15.00;10.88;;;9.80;88.40;;;;;;5032156;28;20056;-72
2022/04/06 06:25:26;;;;;;;17.52;12.55;;;9.70;89.20;;;;;;5032385;28;20053;-72
2022/04/06 06:27:52;;;;;;;19.60;13.40;;;9.60;89.20;;;;;;5028412;28;20022;-74
2022/04/06 06:30:18;;;;;;;19.40;13.27;;;9.60;89.80;;;;;;5028292;28;20022;-73
2022/04/06 06:32:44;;;;;;;17.85;12.48;;;9.50;90.10;;;;;;5031625;28;20029;-71
2022/04/06 06:35:10;;;;;;;20.48;14.15;;;9.50;90.40;;;;;;5031685;28;20026;-72
2022/04/06 06:37:36;;;;;;;114.82;60.53;;;9.50;90.30;;;;;;5030562;28;20026;-72
2022/04/06 06:40:03;;;;;;;74.93;36.97;;;9.50;90.70;;;;;;5014138;28;20120;-74
2022/04/06 06:42:29;;;;;;;19.95;13.93;;;9.50;90.40;;;;;;5033430;28;20033;-76
2022/04/06 06:44:54;;;;;;;20.75;13.85;;;9.50;89.90;;;;;;5014354;28;20026;-75
2022/04/06 06:47:20;;;;;;;19.15;13.55;;;9.50;89.90;;;;;;5012856;28;20029;-75
2022/04/06 06:49:46;;;;;;;31.23;18.17;;;9.50;90.10;;;;;;5032063;28;20314;-77
2022/04/06 06:52:15;;;;;;;23.77;14.30;;;9.60;90.20;;;;;;5014187;28;20031;-76
2022/04/06 06:54:41;;;;;;;15.73;12.13;;;9.80;89.90;;;;;;5013542;28;20113;-76
2022/04/06 06:57:06;;;;;;;16.23;12.30;;;9.90;89.90;;;;;;5031546;28;20494;-74
2022/04/06 06:59:32;;;;;;;16.08;12.38;;;10.20;90.20;;;;;;5030927;28;20487;-74
2022/04/06 07:01:57;;;;;;;16.30;11.98;;;10.50;90.00;;;;;;5031680;28;20514;-77
2022/04/06 07:04:23;;;;;;;13.27;10.20;;;10.80;89.30;;;;;;5030962;28;20025;-77
2022/04/06 07:06:49;;;;;;;24.30;15.32;;;11.00;87.60;;;;;;5029320;28;20022;-69
2022/04/06 07:09:16;;;;;;;18.73;12.93;;;11.10;86.60;;;;;;5027863;28;20022;-70
2022/04/06 07:11:42;;;;;;;13.88;10.23;;;11.20;86.40;;;;;;5031403;28;20034;-78
2022/04/06 07:14:07;;;;;;;13.90;10.02;;;11.30;85.70;;;;;;5031575;28;20581;-77
2022/04/06 07:16:33;;;;;;;13.15;8.75;;;11.50;86.40;;;;;;5032944;28;20021;-76
2022/04/06 07:18:59;;;;;;;23.70;15.70;;;11.50;85.20;;;;;;5030603;28;20025;-77
2022/04/06 07:21:24;;;;;;;15.85;11.05;;;11.60;85.80;;;;;;5030005;28;20025;-77
2022/04/06 07:23:51;;;;;;;10.30;8.40;;;12.00;86.80;;;;;;5031807;28;20091;-76
2022/04/06 07:26:17;;;;;;;19.10;12.45;;;12.40;83.90;;;;;;5031663;28;20021;-76
2022/04/06 07:28:45;;;;;;;10.57;8.23;;;13.00;82.40;;;;;;5013094;28;20033;-76
2022/04/06 07:31:12;;;;;;;69.05;37.10;;;13.70;80.50;;;;;;5027197;28;20515;-76
2022/04/06 07:33:38;;;;;;;88.47;46.75;;;14.10;76.20;;;;;;5018260;28;20022;-77
2022/04/06 07:36:09;;;;;;;16.00;9.65;;;14.10;72.50;;;;;;5030380;28;20025;-76
2022/04/06 07:38:35;;;;;;;11.75;7.80;;;13.80;70.60;;;;;;5028366;28;20033;-72
2022/04/06 07:41:01;;;;;;;68.07;35.17;;;13.50;71.40;;;;;;5030072;28;20033;-75
2022/04/06 07:43:26;;;;;;;74.70;36.67;;;13.30;71.90;;;;;;5027185;28;20569;-77
2022/04/06 07:45:52;;;;;;;71.50;37.35;;;13.10;70.70;;;;;;5013173;28;20513;-77
2022/04/06 07:48:17;;;;;;;21.85;12.00;;;13.00;71.90;;;;;;5030200;28;20372;-76
2022/04/06 07:50:43;;;;;;;113.28;56.40;;;12.60;70.60;;;;;;5030989;28;20017;-76
2022/04/06 07:53:09;;;;;;;35.45;18.80;;;12.60;73.40;;;;;;5030772;28;20434;-76
2022/04/06 07:55:35;;;;;;;33.25;16.40;;;12.40;71.20;;;;;;5030637;28;20017;-76
2022/04/06 07:58:00;;;;;;;64.07;33.08;;;12.30;71.10;;;;;;5030066;28;20022;-77
2022/04/06 08:00:32;;;;;;;13.63;8.20;;;12.30;71.10;;;;;;5029877;28;20040;-77
2022/04/06 08:02:58;;;;;;;17.20;9.77;;;12.40;71.80;;;;;;5030633;28;20037;-78
2022/04/06 08:05:24;;;;;;;12.25;6.72;;;12.50;71.00;;;;;;5029475;28;20037;-78
2022/04/06 08:07:53;;;;;;;157.13;79.72;;;12.60;71.50;;;;;;5021406;28;20041;-78
2022/04/06 08:10:19;;;;;;;28.00;15.45;;;12.60;72.00;;;;;;5030186;28;20037;-78
2022/04/06 08:12:46;;;;;;;43.95;21.65;;;12.70;70.40;;;;;;5013238;28;20080;-79
2022/04/06 08:15:13;;;;;;;13.63;8.23;;;12.90;70.70;;;;;;5029218;28;20025;-78
2022/04/06 08:26:40;;;;;;;23.33;12.70;;;13.50;66.40;;;;;;4930180;29;20565;-76
2022/04/06 08:30:25;;;;;;;30.35;17.00;;;13.60;65.90;;;;;;4992408;28;20070;-78
2022/04/06 08:35:54;;;;;;;13.75;7.95;;;14.00;65.80;;;;;;4865614;29;20090;-77
2022/04/06 08:38:20;;;;;;;81.82;44.60;;;14.20;64.00;;;;;;4984837;28;20026;-70
2022/04/06 08:40:47;;;;;;;29.83;16.45;;;14.60;63.00;;;;;;4973807;28;20313;-78
2022/04/06 08:43:15;;;;;;;71.82;39.88;;;15.00;60.80;;;;;;4991178;28;20026;-73
2022/04/06 08:45:40;;;;;;;83.60;46.22;;;15.30;60.90;;;;;;4990390;28;20025;-75
2022/04/06 08:48:07;;;;;;;38.00;21.85;;;15.60;58.50;;;;;;4989871;28;20034;-74
2022/04/06 08:50:35;;;;;;;58.22;30.05;;;15.90;55.50;;;;;;4972738;28;20496;-75
2022/04/06 08:53:02;;;;;;;91.28;49.13;;;15.90;55.80;;;;;;4990142;28;20034;-75
2022/04/06 08:55:29;;;;;;;59.97;33.78;;;16.00;56.20;;;;;;4990042;28;20026;-76
2022/04/06 08:57:56;;;;;;;22.20;12.90;;;16.00;54.90;;;;;;4972132;28;20030;-76
2022/04/06 09:00:22;;;;;;;78.28;40.97;;;16.00;53.10;;;;;;4990084;28;20140;-75
2022/04/06 09:02:48;;;;;;;88.57;50.58;;;16.10;54.40;;;;;;4972369;28;20053;-74
2022/04/06 09:05:14;;;;;;;68.47;38.90;;;16.00;55.10;;;;;;4990088;28;20033;-74
2022/04/06 09:07:40;;;;;;;94.47;53.00;;;15.70;54.80;;;;;;4972017;28;20027;-75
2022/04/06 09:10:07;;;;;;;116.57;64.97;;;15.70;55.60;;;;;;4986473;28;20468;-75
2022/04/06 09:12:32;;;;;;;81.03;46.20;;;15.70;55.70;;;;;;4989761;28;20488;-76
2022/04/06 09:15:07;;;;;;;68.78;36.80;;;15.50;55.50;;;;;;4989995;28;20037;-73
2022/04/06 09:17:44;;;;;;;97.85;52.97;;;15.30;57.00;;;;;;4980534;28;20109;-69
2022/04/06 09:20:13;;;;;;;62.03;35.15;;;15.00;57.00;;;;;;4990854;28;20355;-71
2022/04/06 09:22:39;;;;;;;47.40;26.48;;;14.50;58.50;;;;;;4994095;28;20034;-74
2022/04/06 09:25:05;;;;;;;25.30;12.88;;;14.30;59.30;;;;;;4976133;28;20311;-74
2022/04/06 09:27:32;;;;;;;9.98;6.32;;;14.10;60.90;;;;;;4993351;28;20030;-73
2022/04/06 09:29:59;;;;;;;13.38;8.10;;;14.10;59.90;;;;;;4976400;28;20057;-73
2022/04/06 09:32:25;;;;;;;131.20;70.97;;;14.20;59.90;;;;;;4976438;28;20049;-72
2022/04/06 09:34:51;;;;;;;33.83;18.42;;;14.60;61.60;;;;;;4993315;28;20011;-73
2022/04/06 09:37:31;;;;;;;88.50;50.05;;;14.90;59.50;;;;;;4991444;28;20424;-72
2022/04/06 09:40:07;;;;;;;82.15;44.67;;;15.20;58.90;;;;;;4994817;28;20499;-73
2022/04/06 09:42:33;;;;;;;37.72;21.20;;;16.00;58.30;;;;;;4993537;28;20046;-76
2022/04/06 09:47:58;;;;;;;37.20;21.73;;;18.00;50.80;;;;;;4993433;28;20081;-74
2022/04/06 09:50:28;;;;;;;90.07;54.07;;;19.00;48.40;;;;;;4993678;28;20539;-75
2022/04/06 09:52:57;;;;;;;55.83;35.75;;;18.90;47.10;;;;;;4993772;28;20046;-76
2022/04/06 09:55:23;;;;;;;88.95;48.88;;;18.70;46.80;;;;;;4986528;28;20480;-74
2022/04/06 09:57:55;;;;;;;43.05;23.02;;;18.60;46.80;;;;;;4992392;28;20041;-76
2022/04/06 10:00:23;;;;;;;29.48;17.23;;;18.50;47.80;;;;;;4993274;28;20076;-75
2022/04/06 10:02:55;;;;;;;323.48;206.60;;;18.40;47.60;;;;;;4992962;28;20030;-74
2022/04/06 10:05:23;;;;;;;21.58;12.15;;;18.10;48.00;;;;;;4992643;28;20030;-76
2022/04/06 10:07:51;;;;;;;111.20;60.33;;;17.80;47.50;;;;;;4992340;28;20037;-75
2022/04/06 10:10:17;;;;;;;28.77;16.35;;;17.80;49.10;;;;;;4994753;28;20025;-73
2022/04/06 10:12:44;;;;;;;82.38;48.05;;;17.70;46.60;;;;;;4993904;28;20030;-73
2022/04/06 10:15:10;;;;;;;100.57;56.90;;;17.60;46.60;;;;;;4981119;28;20512;-72
2022/04/06 10:17:36;;;;;;;47.00;24.98;;;16.90;48.70;;;;;;4991473;28;20034;-72
2022/04/06 10:20:29;;;;;;;75.82;41.60;;;16.50;48.50;;;;;;4988027;28;20027;-73
2022/04/06 10:23:32;;;;;;;61.97;32.53;;;16.10;50.90;;;;;;4975393;28;20035;-73
2022/04/06 10:26:05;;;;;;;46.05;24.98;;;15.90;51.70;;;;;;4975426;28;20027;-73
2022/04/06 10:28:35;;;;;;;12.48;7.85;;;16.10;51.30;;;;;;4974401;28;20037;-73
2022/04/06 10:31:22;;;;;;;78.32;42.97;;;16.50;50.60;;;;;;4974864;28;20094;-72
2022/04/06 10:33:49;;;;;;;35.42;20.02;;;16.60;49.40;;;;;;4993848;28;20029;-72
2022/04/06 10:36:28;;;;;;;27.83;17.20;;;16.70;49.30;;;;;;4994538;28;20080;-72
2022/04/06 10:39:12;;;;;;;51.63;28.88;;;16.60;48.50;;;;;;4993956;28;20030;-72
2022/04/06 10:41:41;;;;;;;57.78;29.13;;;16.50;49.00;;;;;;4995070;28;20104;-73
2022/04/06 10:44:26;;;;;;;39.45;19.90;;;16.60;49.10;;;;;;4994889;28;20045;-73
2022/04/06 10:47:04;;;;;;;94.43;50.70;;;16.40;47.00;;;;;;4994485;28;20052;-72
2022/04/06 10:49:30;;;;;;;30.42;17.58;;;16.30;48.10;;;;;;4994505;28;20488;-73
2022/04/06 10:51:58;;;;;;;33.70;18.70;;;16.30;48.20;;;;;;4994703;28;20019;-73
2022/04/06 10:54:34;;;;;;;52.42;30.27;;;16.50;47.00;;;;;;4994645;28;20022;-72
2022/04/06 10:57:01;;;;;;;30.92;16.95;;;17.00;47.40;;;;;;4994141;28;20550;-70
2022/04/06 10:59:28;;;;;;;31.45;17.88;;;17.00;46.60;;;;;;4993840;28;20026;-72
2022/04/06 11:02:16;;;;;;;78.78;42.53;;;17.00;46.60;;;;;;4976839;28;20109;-73
2022/04/06 11:04:42;;;;;;;55.80;31.23;;;16.70;46.80;;;;;;4994426;28;20026;-72
2022/04/06 11:07:08;;;;;;;42.55;24.08;;;16.60;47.80;;;;;;4993625;28;20026;-72
2022/04/06 11:12:26;;;;;;;98.32;52.78;;;16.70;46.70;;;;;;4988770;28;20105;-72
2022/04/06 11:14:57;;;;;;;46.50;25.30;;;17.00;47.20;;;;;;4973416;28;20049;-73
2022/04/06 11:17:34;;;;;;;22.63;12.88;;;17.40;45.90;;;;;;4973508;28;20049;-73
2022/04/06 11:20:01;;;;;;;73.68;41.28;;;17.40;44.90;;;;;;4994270;28;20444;-74
2022/04/06 11:22:27;;;;;;;59.42;34.42;;;17.40;45.60;;;;;;4993904;28;20342;-73
2022/04/06 11:24:56;;;;;;;55.33;30.05;;;17.40;45.00;;;;;;4993926;28;20058;-73
2022/04/06 11:27:32;;;;;;;59.80;33.15;;;17.30;45.10;;;;;;4992718;28;20037;-72
2022/04/06 11:30:05;;;;;;;48.72;29.42;;;17.30;45.70;;;;;;4976261;28;20109;-71
2022/04/06 11:32:33;;;;;;;40.78;22.88;;;17.40;45.30;;;;;;4993541;28;20069;-74
2022/04/06 11:35:00;;;;;;;10.80;6.60;;;17.30;45.00;;;;;;4976400;28;20037;-73
2022/04/06 11:37:26;;;;;;;24.83;14.18;;;17.60;44.90;;;;;;4993140;28;20150;-73
2022/04/06 11:39:57;;;;;;;14.35;8.48;;;17.70;44.30;;;;;;4993621;28;20033;-74
2022/04/06 11:42:23;;;;;;;16.85;10.13;;;18.10;43.60;;;;;;4992469;28;20360;-72
2022/04/06 11:44:49;;;;;;;37.08;22.17;;;18.10;44.20;;;;;;4993703;28;20037;-73
2022/04/06 11:47:14;;;;;;;40.45;23.63;;;18.00;44.20;;;;;;4992664;28;20041;-72
2022/04/06 11:49:40;;;;;;;58.60;33.80;;;17.80;45.40;;;;;;4993017;28;20026;-72
2022/04/06 11:52:07;;;;;;;17.70;11.13;;;17.50;46.10;;;;;;4993513;28;20023;-73
2022/04/06 11:54:32;;;;;;;24.98;11.80;;;17.10;45.90;;;;;;4993237;28;20033;-72
2022/04/06 11:56:58;;;;;;;13.93;7.28;;;17.20;46.70;;;;;;4993056;28;20395;-71
2022/04/06 11:59:25;;;;;;;35.00;19.88;;;17.50;46.40;;;;;;4975173;28;20556;-73
2022/04/06 12:01:52;;;;;;;45.47;24.30;;;17.60;46.10;;;;;;4993284;28;20054;-73
2022/04/06 12:04:21;;;;;;;15.68;9.40;;;17.60;46.60;;;;;;4993294;28;20105;-73
2022/04/06 12:06:47;;;;;;;22.05;11.95;;;17.40;46.10;;;;;;4993207;28;20089;-72
2022/04/06 12:09:13;;;;;;;48.25;27.77;;;17.20;46.70;;;;;;4992219;28;20443;-73
2022/04/06 12:11:39;;;;;;;18.25;9.98;;;17.20;47.60;;;;;;4975360;28;20026;-72
2022/04/06 12:14:10;;;;;;;19.75;11.57;;;17.30;47.60;;;;;;4993004;28;20046;-72
2022/04/06 12:16:36;;;;;;;62.20;36.65;;;17.30;45.60;;;;;;4991693;28;20102;-74
2022/04/06 12:19:05;;;;;;;33.78;19.83;;;17.20;47.10;;;;;;4990713;28;20042;-74
2022/04/06 12:21:31;;;;;;;24.75;14.95;;;17.10;46.90;;;;;;4992977;28;20117;-73
2022/04/06 12:23:56;;;;;;;45.33;26.92;;;17.10;46.80;;;;;;4992972;28;20126;-74
2022/04/06 12:26:24;;;;;;;17.10;10.00;;;17.20;47.50;;;;;;4975275;28;20050;-72
2022/04/06 12:28:59;;;;;;;67.78;37.38;;;17.40;46.50;;;;;;4992331;28;20125;-73
2022/04/06 12:31:36;;;;;;;28.30;16.88;;;17.70;46.70;;;;;;4992973;28;20032;-73
2022/04/06 12:34:02;;;;;;;45.50;25.65;;;17.70;45.60;;;;;;4992572;28;20069;-72
2022/04/06 12:36:30;;;;;;;44.88;25.00;;;17.80;45.50;;;;;;4975402;28;20165;-73
2022/04/06 12:39:10;;;;;;;51.85;28.98;;;18.00;44.90;;;;;;4991861;28;20085;-74
2022/04/06 12:41:58;;;;;;;30.75;17.25;;;18.00;44.10;;;;;;4974898;28;20033;-72
2022/04/06 12:44:28;;;;;;;5.85;3.15;;;18.00;43.50;;;;;;4992388;28;20049;-73
2022/04/06 12:46:54;;;;;;;21.85;11.95;;;17.70;43.60;;;;;;4992448;28;20109;-73
2022/04/06 12:49:22;;;;;;;34.08;19.40;;;17.50;44.90;;;;;;4992378;28;20026;-73
2022/04/06 12:52:02;;;;;;;63.45;35.35;;;17.50;46.40;;;;;;4975124;28;20049;-74
2022/04/06 12:54:31;;;;;;;26.58;15.30;;;17.50;46.90;;;;;;4992445;28;20019;-73
2022/04/06 12:57:07;;;;;;;48.10;29.23;;;17.60;46.60;;;;;;4992442;28;20042;-73